createdAt,value
2022-12-26T00:02:00.338Z,2.00
2022-12-26T00:04:48.575Z,1.60
2022-12-26T00:07:16.577Z,1.93
2022-12-26T00:09:43.943Z,2.13
2022-12-26T00:12:10.980Z,1.70
2022-12-26T00:14:39.715Z,1.80
2022-12-26T00:17:07.736Z,2.10
2022-12-26T00:19:34.803Z,1.33
2022-12-26T00:22:02.574Z,1.53
2022-12-26T00:24:29.651Z,2.63
2022-12-26T00:26:56.697Z,2.30
2022-12-26T00:29:23.876Z,1.70
2022-12-26T00:31:50.939Z,2.07
2022-12-26T00:34:18.216Z,1.57
2022-12-26T00:36:45.399Z,1.63
2022-12-26T00:39:12.793Z,2.90
2022-12-26T00:41:39.963Z,1.63
2022-12-26T00:44:07.069Z,1.40
2022-12-26T00:46:34.328Z,1.40
2022-12-26T00:49:01.457Z,1.93
2022-12-26T00:51:28.544Z,1.97
2022-12-26T00:53:55.641Z,2.63
2022-12-26T00:56:22.723Z,1.80
2022-12-26T00:58:49.857Z,1.73
2022-12-26T01:01:23.418Z,1.50
2022-12-26T01:03:51.455Z,2.50
2022-12-26T01:06:18.958Z,1.30
2022-12-26T01:08:46.159Z,1.93
2022-12-26T01:11:16.340Z,2.17
2022-12-26T01:13:43.542Z,2.03
2022-12-26T01:16:10.966Z,1.67
2022-12-26T01:18:38.201Z,2.37
2022-12-26T01:21:09.144Z,1.77
2022-12-26T01:23:36.473Z,2.53
2022-12-26T01:26:17.690Z,1.23
2022-12-26T01:28:51.603Z,2.83
2022-12-26T01:31:20.073Z,2.40
2022-12-26T01:33:48.000Z,1.00
2022-12-26T01:36:16.787Z,1.03
2022-12-26T01:38:44.557Z,2.27
2022-12-26T01:41:19.545Z,2.03
2022-12-26T01:44:45.441Z,1.37
2022-12-26T01:47:14.591Z,2.83
2022-12-26T01:49:50.773Z,1.23
2022-12-26T01:52:39.960Z,2.33
2022-12-26T01:55:12.544Z,1.77
2022-12-26T01:57:44.861Z,2.07
2022-12-26T02:00:13.792Z,2.57
2022-12-26T02:03:01.077Z,2.07
2022-12-26T02:05:36.887Z,2.03
2022-12-26T02:08:17.363Z,2.07
2022-12-26T02:10:54.436Z,1.83
2022-12-26T02:13:21.751Z,2.23
2022-12-26T02:15:49.028Z,2.30
2022-12-26T02:18:16.146Z,2.33
2022-12-26T02:20:59.443Z,2.23
2022-12-26T02:24:20.668Z,2.23
2022-12-26T02:27:19.015Z,1.47
2022-12-26T02:29:48.829Z,1.90
2022-12-26T02:32:56.533Z,1.70
2022-12-26T02:35:52.715Z,1.37
2022-12-26T02:38:53.490Z,2.40
2022-12-26T02:41:55.644Z,1.77
2022-12-26T02:44:53.773Z,2.60
2022-12-26T02:47:34.793Z,1.90
2022-12-26T02:50:32.195Z,2.87
2022-12-26T02:53:47.940Z,3.37
2022-12-26T02:56:45.500Z,3.20
2022-12-26T03:00:08.781Z,1.83
2022-12-26T03:02:59.787Z,2.33
2022-12-26T03:06:01.645Z,2.30
2022-12-26T03:08:54.641Z,2.60
2022-12-26T03:11:47.591Z,2.33
2022-12-26T03:14:24.303Z,2.33
2022-12-26T03:17:18.256Z,1.63
2022-12-26T03:19:59.808Z,2.40
2022-12-26T03:22:51.336Z,2.13
2022-12-26T03:25:55.721Z,2.27
2022-12-26T03:28:24.339Z,2.57
2022-12-26T03:30:53.487Z,2.60
2022-12-26T03:33:53.968Z,2.23
2022-12-26T03:37:11.332Z,2.33
2022-12-26T03:40:21.768Z,2.07
2022-12-26T03:43:44.943Z,1.83
2022-12-26T03:47:03.896Z,2.07
2022-12-26T03:50:07.131Z,2.43
2022-12-26T03:53:10.253Z,1.87
2022-12-26T03:56:25.438Z,2.03
2022-12-26T03:59:33.477Z,1.40
2022-12-26T04:02:25.588Z,2.30
2022-12-26T04:05:16.038Z,2.07
2022-12-26T04:08:18.456Z,2.47
2022-12-26T04:11:12.003Z,2.07
2022-12-26T04:14:30.280Z,2.10
2022-12-26T04:17:48.023Z,1.93
2022-12-26T04:20:48.133Z,2.03
2022-12-26T04:24:07.266Z,3.10
2022-12-26T04:27:03.890Z,1.13
2022-12-26T04:29:49.793Z,1.63
2022-12-26T04:32:47.376Z,1.63
2022-12-26T04:35:44.083Z,2.37
2022-12-26T04:38:35.217Z,3.07
2022-12-26T04:41:22.765Z,2.23
2022-12-26T04:44:12.265Z,2.33
2022-12-26T04:46:47.485Z,2.17
2022-12-26T04:49:36.384Z,2.70
2022-12-26T04:52:11.391Z,2.10
2022-12-26T04:54:39.131Z,1.87
2022-12-26T04:57:07.466Z,2.17
2022-12-26T04:59:34.888Z,2.17
2022-12-26T05:02:20.355Z,2.60
2022-12-26T05:05:05.989Z,2.77
2022-12-26T05:07:56.104Z,2.80
2022-12-26T05:10:28.003Z,2.97
2022-12-26T05:12:56.039Z,2.47
2022-12-26T05:15:23.797Z,2.63
2022-12-26T05:18:09.236Z,3.27
2022-12-26T05:20:54.602Z,2.40
2022-12-26T05:23:44.438Z,2.17
2022-12-26T05:26:42.115Z,2.53
2022-12-26T05:29:09.408Z,1.70
2022-12-26T05:31:37.387Z,2.37
2022-12-26T05:34:10.887Z,1.93
2022-12-26T05:36:48.486Z,2.60
2022-12-26T05:39:15.862Z,2.53
2022-12-26T05:41:43.308Z,1.90
2022-12-26T05:44:12.151Z,1.80
2022-12-26T05:46:43.087Z,2.10
2022-12-26T05:49:11.053Z,1.40
2022-12-26T05:51:38.627Z,2.47
2022-12-26T05:54:06.140Z,1.83
2022-12-26T05:56:33.225Z,2.17
2022-12-26T05:59:01.770Z,2.40
2022-12-26T06:01:30.691Z,2.07
2022-12-26T06:04:00.617Z,2.30
2022-12-26T06:06:29.099Z,2.20
2022-12-26T06:08:57.904Z,2.10
2022-12-26T06:11:26.885Z,1.40
2022-12-26T06:13:56.587Z,1.33
2022-12-26T06:16:24.016Z,1.70
2022-12-26T06:18:51.375Z,1.93
2022-12-26T06:21:20.585Z,1.67
2022-12-26T06:23:49.327Z,2.90
2022-12-26T06:26:17.506Z,1.23
2022-12-26T06:28:45.151Z,2.37
2022-12-26T06:31:24.657Z,2.33
2022-12-26T06:34:00.278Z,1.93
2022-12-26T06:36:37.096Z,2.27
2022-12-26T06:39:07.282Z,2.60
2022-12-26T06:41:34.434Z,2.87
2022-12-26T06:44:01.702Z,2.47
2022-12-26T06:46:28.998Z,2.43
2022-12-26T06:48:56.279Z,2.67
2022-12-26T06:51:26.547Z,2.27
2022-12-26T06:53:57.191Z,3.40
2022-12-26T06:56:27.565Z,2.87
2022-12-26T06:58:59.133Z,2.20
2022-12-26T07:01:29.579Z,2.20
2022-12-26T07:04:01.147Z,2.27
2022-12-26T07:06:37.552Z,2.10
2022-12-26T07:09:17.430Z,2.97
2022-12-26T07:12:22.251Z,2.53
2022-12-26T07:15:22.017Z,1.77
2022-12-26T07:17:53.736Z,2.50
2022-12-26T07:20:21.076Z,1.67
2022-12-26T07:22:48.246Z,3.90
2022-12-26T07:25:18.042Z,2.60
2022-12-26T07:27:47.615Z,2.47
2022-12-26T07:30:14.840Z,1.70
2022-12-26T07:32:41.947Z,2.23
2022-12-26T07:35:09.574Z,2.47
2022-12-26T07:37:42.321Z,3.20
2022-12-26T07:40:10.481Z,3.23
2022-12-26T07:42:37.689Z,1.80
2022-12-26T07:45:11.515Z,2.60
2022-12-26T07:47:38.621Z,3.60
2022-12-26T07:50:12.471Z,2.57
2022-12-26T07:52:42.040Z,2.30
2022-12-26T07:55:09.827Z,4.70
2022-12-26T07:57:52.555Z,3.70
2022-12-26T08:00:23.187Z,3.33
2022-12-26T08:02:53.285Z,3.77
2022-12-26T08:05:25.522Z,3.27
2022-12-26T08:07:52.682Z,3.27
2022-12-26T08:10:19.779Z,2.33
2022-12-26T08:12:47.304Z,1.93
2022-12-26T08:15:14.652Z,1.93
2022-12-26T08:17:42.137Z,2.33
2022-12-26T08:20:09.864Z,2.47
2022-12-26T08:22:37.195Z,2.40
2022-12-26T08:25:05.135Z,3.13
2022-12-26T08:27:32.376Z,3.23
2022-12-26T08:29:59.711Z,2.60
2022-12-26T08:32:26.849Z,2.73
2022-12-26T08:34:53.947Z,2.80
2022-12-26T08:37:21.226Z,2.53
2022-12-26T08:39:48.394Z,4.93
2022-12-26T08:42:18.275Z,3.00
2022-12-26T08:44:45.929Z,3.43
2022-12-26T08:47:14.421Z,3.80
2022-12-26T08:49:41.714Z,4.07
2022-12-26T08:52:08.805Z,3.13
2022-12-26T08:54:36.039Z,4.40
2022-12-26T08:57:03.389Z,3.33
2022-12-26T08:59:30.704Z,2.73
2022-12-26T09:01:58.047Z,3.93
2022-12-26T09:04:25.447Z,4.67
2022-12-26T09:06:55.478Z,4.53
2022-12-26T09:09:23.531Z,4.83
2022-12-26T09:11:50.618Z,5.87
2022-12-26T09:14:20.077Z,4.33
2022-12-26T09:16:50.950Z,4.83
2022-12-26T09:19:20.727Z,4.33
2022-12-26T09:22:09.857Z,3.10
2022-12-26T09:24:37.110Z,4.70
2022-12-26T09:27:04.333Z,3.43
2022-12-26T09:29:31.453Z,4.60
2022-12-26T09:31:58.844Z,4.20
2022-12-26T09:34:26.024Z,4.10
2022-12-26T09:36:53.439Z,4.37
2022-12-26T09:39:20.698Z,4.43
2022-12-26T09:42:08.962Z,3.93
2022-12-26T09:44:56.034Z,4.03
2022-12-26T09:47:46.886Z,5.00
2022-12-26T09:50:23.858Z,3.53
2022-12-26T09:53:05.888Z,4.17
2022-12-26T09:56:04.293Z,3.50
2022-12-26T09:58:44.255Z,4.27
2022-12-26T10:01:17.642Z,3.70
2022-12-26T10:03:50.180Z,3.73
2022-12-26T10:06:22.412Z,3.50
2022-12-26T10:09:23.070Z,3.50
2022-12-26T10:12:05.506Z,3.97
2022-12-26T10:14:59.793Z,3.83
2022-12-26T10:17:46.245Z,4.20
2022-12-26T10:20:47.080Z,4.17
2022-12-26T10:23:27.276Z,4.00
2022-12-26T10:26:27.331Z,3.10
2022-12-26T10:29:00.961Z,2.70
2022-12-26T10:31:48.387Z,3.93
2022-12-26T10:34:32.556Z,4.00
2022-12-26T10:37:19.770Z,3.67
2022-12-26T10:40:22.211Z,6.23
2022-12-26T10:42:59.723Z,7.10
2022-12-26T10:45:49.762Z,7.43
2022-12-26T10:48:17.412Z,3.50
2022-12-26T10:50:49.385Z,3.77
2022-12-26T10:53:18.036Z,4.07
2022-12-26T10:55:45.447Z,4.13
2022-12-26T10:58:25.945Z,5.43
2022-12-26T11:00:53.325Z,3.70
2022-12-26T11:03:21.934Z,3.23
2022-12-26T11:06:08.753Z,5.63
2022-12-26T11:08:49.382Z,5.17
2022-12-26T11:11:52.474Z,5.40
2022-12-26T11:14:41.101Z,5.00
2022-12-26T11:17:31.680Z,5.13
2022-12-26T11:20:32.487Z,3.93
2022-12-26T11:23:33.709Z,5.00
2022-12-26T11:26:17.628Z,3.73
2022-12-26T11:28:44.825Z,4.63
2022-12-26T11:31:28.288Z,3.97
2022-12-26T11:33:55.463Z,4.27
2022-12-26T11:36:26.901Z,4.33
2022-12-26T11:39:03.896Z,4.20
2022-12-26T11:41:40.367Z,3.87
2022-12-26T11:44:12.321Z,4.00
2022-12-26T11:46:48.664Z,4.53
2022-12-26T11:49:30.283Z,4.90
2022-12-26T11:52:00.145Z,4.30
2022-12-26T11:54:29.475Z,5.67
2022-12-26T11:57:17.133Z,4.17
2022-12-26T11:59:45.132Z,4.20
2022-12-26T12:02:27.472Z,4.53
2022-12-26T12:05:14.890Z,4.50
2022-12-26T12:07:51.117Z,4.80
2022-12-26T12:11:00.552Z,3.87
2022-12-26T12:14:21.888Z,4.73
2022-12-26T12:17:27.527Z,4.23
2022-12-26T12:20:32.420Z,3.57
2022-12-26T12:24:00.588Z,4.30
2022-12-26T12:27:08.805Z,4.53
2022-12-26T12:30:18.242Z,4.47
2022-12-26T12:33:00.219Z,3.40
2022-12-26T12:36:07.386Z,3.40
2022-12-26T12:38:56.372Z,3.83
2022-12-26T12:41:53.952Z,4.97
2022-12-26T12:44:37.136Z,5.00
2022-12-26T12:47:44.271Z,4.07
2022-12-26T12:50:50.521Z,5.23
2022-12-26T12:53:34.343Z,4.50
2022-12-26T12:56:41.746Z,4.53
2022-12-26T13:00:04.223Z,5.37
2022-12-26T13:02:43.718Z,4.27
2022-12-26T13:05:25.920Z,4.03
2022-12-26T13:08:10.864Z,3.30
2022-12-26T13:10:52.358Z,3.50
2022-12-26T13:13:30.068Z,4.13
2022-12-26T13:16:11.057Z,3.70
2022-12-26T13:19:04.218Z,5.20
2022-12-26T13:21:40.068Z,4.73
2022-12-26T13:24:27.833Z,4.60
2022-12-26T13:27:00.842Z,4.67
2022-12-26T13:29:41.831Z,4.30
2022-12-26T13:32:25.655Z,4.27
2022-12-26T13:35:00.203Z,4.23
2022-12-26T13:37:39.282Z,4.23
2022-12-26T13:40:12.745Z,4.57
2022-12-26T13:43:21.260Z,3.87
2022-12-26T13:46:00.969Z,3.30
2022-12-26T13:52:12.103Z,4.17
2022-12-26T13:54:48.151Z,3.00
2022-12-26T13:57:45.857Z,4.63
2022-12-26T14:00:15.884Z,4.10
2022-12-26T14:03:21.928Z,4.00
2022-12-26T14:05:58.431Z,5.03
2022-12-26T14:08:36.460Z,3.63
2022-12-26T14:11:42.398Z,4.47
2022-12-26T14:14:54.061Z,3.43
2022-12-26T14:18:09.263Z,3.00
2022-12-26T14:21:07.814Z,3.57
2022-12-26T14:24:20.640Z,4.53
2022-12-26T14:27:09.972Z,3.30
2022-12-26T14:30:03.256Z,4.33
2022-12-26T14:33:04.991Z,4.23
2022-12-26T14:36:04.590Z,6.83
2022-12-26T14:39:03.690Z,5.37
2022-12-26T14:42:32.174Z,4.87
2022-12-26T14:45:28.310Z,4.83
2022-12-26T14:47:56.496Z,3.63
2022-12-26T14:50:32.676Z,3.47
2022-12-26T14:53:32.207Z,3.97
2022-12-26T14:56:21.250Z,4.83
2022-12-26T14:59:38.239Z,4.43
2022-12-26T15:02:20.935Z,4.90
2022-12-26T15:05:21.064Z,4.23
2022-12-26T15:08:39.443Z,8.17
2022-12-26T15:11:32.193Z,5.03
2022-12-26T15:14:14.897Z,5.80
2022-12-26T15:16:44.892Z,3.80
2022-12-26T15:20:11.135Z,4.60
2022-12-26T15:23:06.480Z,5.77
2022-12-26T15:26:07.490Z,5.43
2022-12-26T15:29:03.766Z,5.13
2022-12-26T15:31:48.201Z,5.00
2022-12-26T15:34:35.754Z,6.23
2022-12-26T15:37:45.183Z,4.83
2022-12-26T15:40:57.482Z,4.57
2022-12-26T15:44:23.395Z,3.87
2022-12-26T15:47:02.460Z,3.17
2022-12-26T15:49:51.094Z,6.80
2022-12-26T15:53:06.895Z,6.30
2022-12-26T15:56:03.539Z,6.57
2022-12-26T15:59:13.720Z,4.27
2022-12-26T16:01:54.949Z,4.77
2022-12-26T16:04:36.954Z,6.20
2022-12-26T16:07:34.808Z,4.50
2022-12-26T16:10:02.628Z,3.20
2022-12-26T16:12:39.915Z,3.53
2022-12-26T16:15:45.069Z,4.43
2022-12-26T16:18:37.159Z,4.27
2022-12-26T16:21:31.454Z,2.73
2022-12-26T16:24:04.637Z,4.67
2022-12-26T16:26:43.280Z,4.30
2022-12-26T16:29:21.259Z,3.90
2022-12-26T16:35:32.356Z,2.70
2022-12-26T16:38:16.204Z,4.03
2022-12-26T16:40:54.123Z,4.03
2022-12-26T16:43:55.529Z,4.93
2022-12-26T16:46:31.943Z,4.60
2022-12-26T16:49:06.583Z,4.97
2022-12-26T16:51:47.976Z,3.83
2022-12-26T16:54:38.670Z,5.33
2022-12-26T16:57:22.398Z,5.07
2022-12-26T17:00:03.327Z,5.13
2022-12-26T17:02:36.778Z,3.93
2022-12-26T17:06:05.220Z,4.33
2022-12-26T17:08:53.822Z,4.53
2022-12-26T17:11:57.993Z,3.97
2022-12-26T17:14:38.652Z,3.20
2022-12-26T17:17:24.525Z,4.13
2022-12-26T17:19:58.992Z,3.63
2022-12-26T17:22:33.028Z,4.03
2022-12-26T17:25:30.689Z,3.77
2022-12-26T17:28:20.699Z,4.00
2022-12-26T17:30:55.557Z,4.63
2022-12-26T17:33:29.850Z,3.90
2022-12-26T17:36:52.484Z,5.77
2022-12-26T17:38:52.024Z,5.43
2022-12-26T17:41:20.421Z,6.53
2022-12-26T17:43:48.447Z,5.50
2022-12-26T17:46:18.437Z,5.07
2022-12-26T17:48:51.279Z,6.67
2022-12-26T17:51:22.066Z,4.47
2022-12-26T17:53:51.929Z,4.33
2022-12-26T17:56:24.284Z,6.10
2022-12-26T17:58:56.497Z,5.00
2022-12-26T18:01:23.779Z,5.93
2022-12-26T18:03:52.990Z,5.77
2022-12-26T18:06:24.389Z,6.60
2022-12-26T18:08:51.838Z,7.50
2022-12-26T18:11:19.168Z,5.47
2022-12-26T18:13:48.059Z,5.10
2022-12-26T18:16:20.181Z,5.93
2022-12-26T18:18:54.376Z,6.07
2022-12-26T18:21:21.550Z,5.77
2022-12-26T18:23:48.673Z,5.17
2022-12-26T18:26:32.175Z,6.67
2022-12-26T18:29:02.000Z,5.07
2022-12-26T18:31:31.640Z,5.80
2022-12-26T18:33:58.898Z,5.97
2022-12-26T18:36:41.242Z,5.37
2022-12-26T18:39:16.603Z,5.50
2022-12-26T18:41:44.273Z,6.70
2022-12-26T18:44:13.862Z,4.40
2022-12-26T18:46:41.121Z,6.37
2022-12-26T18:49:10.941Z,7.23
2022-12-26T18:51:39.582Z,5.80
2022-12-26T18:54:06.751Z,6.97
2022-12-26T18:56:36.239Z,6.93
2022-12-26T18:59:03.705Z,6.37
2022-12-26T19:01:33.544Z,6.63
2022-12-26T19:04:01.035Z,8.57
2022-12-26T19:06:35.356Z,6.70
2022-12-26T19:09:03.430Z,6.20
2022-12-26T19:11:33.926Z,6.87
2022-12-26T19:14:03.427Z,4.87
2022-12-26T19:16:34.923Z,5.70
2022-12-26T19:19:03.201Z,5.53
2022-12-26T19:21:31.320Z,4.83
2022-12-26T19:24:00.717Z,5.43
2022-12-26T19:26:34.502Z,5.40
2022-12-26T19:29:02.052Z,6.40
2022-12-26T19:31:32.257Z,6.50
2022-12-26T19:34:00.371Z,5.77
2022-12-26T19:36:29.811Z,6.20
2022-12-26T19:38:57.867Z,6.23
2022-12-26T19:41:25.683Z,6.80
2022-12-26T19:43:58.589Z,5.20
2022-12-26T19:46:28.368Z,5.97
2022-12-26T19:48:59.754Z,5.90
2022-12-26T19:51:27.017Z,7.47
2022-12-26T19:53:54.206Z,5.47
2022-12-26T19:56:30.454Z,6.80
2022-12-26T19:58:58.759Z,5.87
2022-12-26T20:01:32.170Z,5.90
2022-12-26T20:04:04.451Z,6.87
2022-12-26T20:06:36.299Z,8.27
2022-12-26T20:09:11.926Z,6.17
2022-12-26T20:11:46.958Z,6.50
2022-12-26T20:14:20.027Z,7.23
2022-12-26T20:17:06.260Z,6.83
2022-12-26T20:19:35.543Z,7.47
2022-12-26T20:22:03.187Z,5.80
2022-12-26T20:24:30.392Z,5.60
2022-12-26T20:26:58.043Z,5.73
2022-12-26T20:29:25.428Z,5.30
2022-12-26T20:31:57.333Z,5.03
2022-12-26T20:34:27.489Z,6.47
2022-12-26T20:36:57.613Z,8.57
2022-12-26T20:39:25.726Z,6.17
2022-12-26T20:41:53.266Z,4.93
2022-12-26T20:44:20.744Z,6.03
2022-12-26T20:46:48.171Z,7.33
2022-12-26T20:49:18.546Z,6.63
2022-12-26T20:51:46.183Z,5.20
2022-12-26T20:54:15.566Z,6.27
2022-12-26T20:56:43.811Z,7.00
2022-12-26T20:59:11.379Z,6.80
2022-12-26T21:01:40.004Z,7.63
2022-12-26T21:04:09.596Z,5.97
2022-12-26T21:06:38.166Z,6.57
2022-12-26T21:09:09.191Z,7.07
2022-12-26T21:11:39.976Z,8.40
2022-12-26T21:14:19.810Z,6.50
2022-12-26T21:16:54.616Z,5.70
2022-12-26T21:19:24.813Z,6.93
2022-12-26T21:21:55.747Z,5.47
2022-12-26T21:24:24.610Z,7.40
2022-12-26T21:26:53.175Z,7.87
2022-12-26T21:29:25.164Z,5.57
2022-12-26T21:31:56.249Z,7.07
2022-12-26T21:34:27.884Z,7.43
2022-12-26T21:37:15.436Z,5.93
2022-12-26T21:39:43.134Z,6.10
2022-12-26T21:42:10.619Z,7.07
2022-12-26T21:44:38.065Z,6.27
2022-12-26T21:47:08.203Z,7.47
2022-12-26T21:49:39.454Z,6.60
2022-12-26T21:52:08.494Z,6.33
2022-12-26T21:54:54.373Z,6.73
2022-12-26T21:57:22.114Z,6.37
2022-12-26T21:59:59.168Z,6.23
2022-12-26T22:02:50.342Z,5.63
2022-12-26T22:05:21.224Z,4.87
2022-12-26T22:07:53.488Z,8.40
2022-12-26T22:10:39.496Z,4.53
2022-12-26T22:13:07.653Z,6.57
2022-12-26T22:15:53.773Z,7.03
2022-12-26T22:18:21.007Z,5.37
2022-12-26T22:20:48.457Z,6.20
2022-12-26T22:23:15.637Z,6.13
2022-12-26T22:25:43.200Z,5.03
2022-12-26T22:28:10.853Z,6.57
2022-12-26T22:30:38.071Z,5.60
2022-12-26T22:33:05.334Z,7.03
2022-12-26T22:35:33.628Z,5.57
2022-12-26T22:38:00.856Z,7.70
2022-12-26T22:40:27.946Z,5.33
2022-12-26T22:42:55.026Z,5.83
2022-12-26T22:45:22.095Z,6.00
2022-12-26T22:47:49.457Z,6.10
2022-12-26T22:50:17.734Z,4.87
2022-12-26T22:52:45.003Z,6.60
2022-12-26T22:55:17.015Z,5.97
2022-12-26T22:57:48.141Z,5.60
2022-12-26T23:00:18.502Z,6.53
2022-12-26T23:02:45.916Z,5.60
2022-12-26T23:05:14.049Z,6.80
2022-12-26T23:07:41.671Z,7.90
2022-12-26T23:10:18.083Z,5.30
2022-12-26T23:12:48.146Z,5.20
2022-12-26T23:15:22.977Z,6.70
2022-12-26T23:18:33.846Z,4.10
2022-12-26T23:21:27.785Z,5.87
2022-12-26T23:23:54.818Z,4.10
2022-12-26T23:26:21.941Z,5.87
2022-12-26T23:29:07.153Z,6.40
2022-12-26T23:31:34.398Z,7.10
2022-12-26T23:34:01.531Z,5.23
2022-12-26T23:36:28.762Z,4.33
2022-12-26T23:38:55.862Z,5.27
2022-12-26T23:41:22.962Z,5.47
2022-12-26T23:43:50.048Z,6.13
2022-12-26T23:46:17.155Z,6.37
2022-12-26T23:48:44.263Z,6.07
2022-12-26T23:51:11.727Z,5.93
2022-12-26T23:53:38.997Z,5.03
2022-12-26T23:56:10.576Z,5.93
2022-12-26T23:58:40.275Z,4.87
